sensor_id;sensor_type;location;lat;lon;timestamp;P1;P4;P2;P0;N10;N4;N25;N1;N05;TS
78570;SPS30;67861;51.966;5.672;2024-01-15T00:00:00;2.2;2.0;1.7;1.2;;;;7.0;6.0;
78570;SPS30;67861;51.966;5.672;2024-01-15T00:02:29;1.6;1.5;1.3;0.9;;;;7.0;6.0;
78570;SPS30;67861;51.966;5.672;2024-01-15T00:04:58;2.2;2.0;1.7;1.2;;;;7.0;6.0;
78570;SPS30;67861;51.966;5.672;2024-01-15T00:07:26;2.5;2.3;1.9;1.3;;;;8.0;6.0;
78570;SPS30;67861;51.966;5.672;2024-01-15T00:09:55;2.1;1.9;1.6;1.1;;;;8.0;6.0;
78570;SPS30;67861;51.966;5.672;2024-01-15T00:12:24;2.9;2.7;2.2;1.6;;;;8.0;6.0;
78570;SPS30;67861;51.966;5.672;2024-01-15T00:14:52;2.1;1.9;1.6;1.1;;;;8.0;6.0;
78570;SPS30;67861;51.966;5.672;2024-01-15T00:17:21;2.3;2.1;1.7;1.3;;;;8.0;6.0;
78570;SPS30;67861;51.966;5.672;2024-01-15T00:19:50;2.5;2.3;1.9;1.3;;;;8.0;6.0;
78570;SPS30;67861;51.966;5.672;2024-01-15T00:22:18;2.5;2.3;1.8;1.2;;;;8.0;6.0;
78570;SPS30;67861;51.966;5.672;2024-01-15T00:24:47;1.9;1.7;1.4;0.9;;;;8.0;6.0;
78570;SPS30;67861;51.966;5.672;2024-01-15T00:27:15;3.1;2.8;2.2;1.4;;;;9.0;6.0;
78570;SPS30;67861;51.966;5.672;2024-01-15T00:29:44;3.1;2.8;2.2;1.4;;;;9.0;6.0;
78570;SPS30;67861;51.966;5.672;2024-01-15T00:32:12;3.9;3.6;2.8;1.8;;;;9.0;6.0;
78570;SPS30;67861;51.966;5.672;2024-01-15T00:34:41;3.0;2.7;2.1;1.4;;;;9.0;7.0;
78570;SPS30;67861;51.966;5.672;2024-01-15T00:37:09;2.5;2.3;1.8;1.2;;;;9.0;7.0;
78570;SPS30;67861;51.966;5.672;2024-01-15T00:39:38;2.2;2.0;1.6;1.1;;;;9.0;7.0;
78570;SPS30;67861;51.966;5.672;2024-01-15T00:42:08;2.8;2.5;2.0;1.3;;;;9.0;7.0;
78570;SPS30;67861;51.966;5.672;2024-01-15T00:44:36;2.3;2.1;1.7;1.1;;;;9.0;8.0;
78570;SPS30;67861;51.966;5.672;2024-01-15T00:47:05;2.5;2.3;1.8;1.2;;;;9.0;8.0;
78570;SPS30;67861;51.966;5.672;2024-01-15T00:49:34;2.7;2.5;2.0;1.3;;;;9.0;8.0;
78570;SPS30;67861;51.966;5.672;2024-01-15T00:52:02;1.6;1.5;1.2;0.8;;;;9.0;8.0;
78570;SPS30;67861;51.966;5.672;2024-01-15T00:54:31;2.2;2.1;1.7;1.1;;;;9.0;9.0;
78570;SPS30;67861;51.966;5.672;2024-01-15T00:57:00;2.1;2.0;1.6;1.1;;;;9.0;9.0;
78570;SPS30;67861;51.966;5.672;2024-01-15T00:59:28;2.3;2.1;1.7;1.2;;;;8.0;10.0;
78570;SPS30;67861;51.966;5.672;2024-01-15T01:01:57;2.0;1.9;1.5;1.1;;;;8.0;11.0;
78570;SPS30;67861;51.966;5.672;2024-01-15T01:04:25;2.8;2.6;2.1;1.4;;;;8.0;12.0;
78570;SPS30;67861;51.966;5.672;2024-01-15T01:06:54;3.3;3.0;2.5;1.7;;;;8.0;12.0;
78570;SPS30;67861;51.966;5.672;2024-01-15T01:09:22;2.9;2.7;2.2;1.5;;;;8.0;12.0;
78570;SPS30;67861;51.966;5.672;2024-01-15T01:11:50;3.1;2.8;2.3;1.6;;;;8.0;12.0;
78570;SPS30;67861;51.966;5.672;2024-01-15T01:14:19;2.5;2.3;1.9;1.3;;;;7.0;13.0;
78570;SPS30;67861;51.966;5.672;2024-01-15T01:16:47;2.4;2.2;1.8;1.2;;;;7.0;13.0;
78570;SPS30;67861;51.966;5.672;2024-01-15T01:19:16;2.5;2.3;1.9;1.2;;;;7.0;14.0;
78570;SPS30;67861;51.966;5.672;2024-01-15T01:21:44;2.6;2.4;1.9;1.3;;;;7.0;15.0;
78570;SPS30;67861;51.966;5.672;2024-01-15T01:24:13;2.8;2.5;2.1;1.4;;;;7.0;15.0;
78570;SPS30;67861;51.966;5.672;2024-01-15T01:26:41;2.8;2.6;2.1;1.5;;;;7.0;15.0;
78570;SPS30;67861;51.966;5.672;2024-01-15T01:29:12;2.1;1.9;1.6;1.1;;;;7.0;16.0;
78570;SPS30;67861;51.966;5.672;2024-01-15T01:31:43;3.3;3.1;2.5;1.7;;;;7.0;17.0;
78570;SPS30;67861;51.966;5.672;2024-01-15T01:34:13;3.6;3.3;2.7;1.9;;;;6.0;17.0;
78570;SPS30;67861;51.966;5.672;2024-01-15T01:36:43;2.4;2.2;1.8;1.3;;;;6.0;17.0;
78570;SPS30;67861;51.966;5.672;2024-01-15T01:39:11;2.5;2.3;1.9;1.4;;;;6.0;16.0;
78570;SPS30;67861;51.966;5.672;2024-01-15T01:41:42;2.6;2.4;2.0;1.4;;;;6.0;16.0;
78570;SPS30;67861;51.966;5.672;2024-01-15T01:44:12;2.8;2.6;2.1;1.5;;;;6.0;15.0;
78570;SPS30;67861;51.966;5.672;2024-01-15T01:46:41;2.6;2.4;1.9;1.3;;;;6.0;15.0;
78570;SPS30;67861;51.966;5.672;2024-01-15T01:49:09;3.3;3.0;2.4;1.6;;;;6.0;15.0;
78570;SPS30;67861;51.966;5.672;2024-01-15T01:51:38;3.1;2.8;2.2;1.4;;;;6.0;15.0;
78570;SPS30;67861;51.966;5.672;2024-01-15T01:54:07;3.4;3.1;2.4;1.5;;;;6.0;15.0;
78570;SPS30;67861;51.966;5.672;2024-01-15T01:56:39;3.4;3.1;2.5;1.6;;;;6.0;15.0;
78570;SPS30;67861;51.966;5.672;2024-01-15T01:59:09;3.1;2.9;2.3;1.5;;;;6.0;15.0;
78570;SPS30;67861;51.966;5.672;2024-01-15T02:01:39;3.1;2.9;2.3;1.5;;;;6.0;15.0;
78570;SPS30;67861;51.966;5.672;2024-01-15T02:04:10;3.0;2.7;2.1;1.4;;;;6.0;16.0;
78570;SPS30;67861;51.966;5.672;2024-01-15T02:06:39;3.4;3.1;2.4;1.5;;;;6.0;16.0;
78570;SPS30;67861;51.966;5.672;2024-01-15T02:09:08;3.9;3.5;2.7;1.6;;;;6.0;16.0;
78570;SPS30;67861;51.966;5.672;2024-01-15T02:11:36;3.5;3.1;2.4;1.4;;;;6.0;17.0;
78570;SPS30;67861;51.966;5.672;2024-01-15T02:14:06;3.8;3.4;2.6;1.5;;;;6.0;18.0;
78570;SPS30;67861;51.966;5.672;2024-01-15T02:16:37;3.8;3.4;2.5;1.5;;;;6.0;18.0;
78570;SPS30;67861;51.966;5.672;2024-01-15T02:19:07;3.8;3.4;2.6;1.5;;;;6.0;18.0;
78570;SPS30;67861;51.966;5.672;2024-01-15T02:21:42;3.7;3.3;2.6;1.6;;;;6.0;18.0;
78570;SPS30;67861;51.966;5.672;2024-01-15T02:24:11;2.6;2.3;1.8;1.2;;;;6.0;18.0;
78570;SPS30;67861;51.966;5.672;2024-01-15T02:26:39;3.0;2.8;2.2;1.4;;;;6.0;18.0;
78570;SPS30;67861;51.966;5.672;2024-01-15T02:29:08;3.9;3.5;2.7;1.7;;;;6.0;18.0;
78570;SPS30;67861;51.966;5.672;2024-01-15T02:31:38;3.6;3.2;2.5;1.5;;;;6.0;18.0;
78570;SPS30;67861;51.966;5.672;2024-01-15T02:34:07;3.7;3.3;2.5;1.5;;;;6.0;18.0;
78570;SPS30;67861;51.966;5.672;2024-01-15T02:36:35;4.3;3.9;3.0;1.8;;;;6.0;18.0;
78570;SPS30;67861;51.966;5.672;2024-01-15T02:39:04;3.9;3.5;2.7;1.6;;;;6.0;19.0;
78570;SPS30;67861;51.966;5.672;2024-01-15T02:41:32;3.1;2.8;2.2;1.3;;;;6.0;19.0;
78570;SPS30;67861;51.966;5.672;2024-01-15T02:44:01;3.2;2.9;2.2;1.3;;;;6.0;20.0;
78570;SPS30;67861;51.966;5.672;2024-01-15T02:46:29;4.4;4.0;3.0;1.8;;;;6.0;20.0;
78570;SPS30;67861;51.966;5.672;2024-01-15T02:48:58;3.4;3.1;2.4;1.5;;;;6.0;19.0;
78570;SPS30;67861;51.966;5.672;2024-01-15T02:51:26;3.2;2.9;2.2;1.4;;;;6.0;19.0;
78570;SPS30;67861;51.966;5.672;2024-01-15T02:53:55;3.5;3.2;2.5;1.5;;;;6.0;19.0;
78570;SPS30;67861;51.966;5.672;2024-01-15T02:56:26;2.8;2.6;2.0;1.2;;;;6.0;18.0;
78570;SPS30;67861;51.966;5.672;2024-01-15T02:58:54;3.2;2.9;2.2;1.4;;;;6.0;19.0;
78570;SPS30;67861;51.966;5.672;2024-01-15T03:01:22;3.9;3.6;2.7;1.7;;;;6.0;19.0;
78570;SPS30;67861;51.966;5.672;2024-01-15T03:03:53;3.4;3.0;2.3;1.4;;;;6.0;19.0;
78570;SPS30;67861;51.966;5.672;2024-01-15T03:06:21;3.2;2.9;2.2;1.2;;;;6.0;19.0;
78570;SPS30;67861;51.966;5.672;2024-01-15T03:08:50;2.9;2.6;2.0;1.2;;;;5.0;20.0;
78570;SPS30;67861;51.966;5.672;2024-01-15T03:11:18;3.4;3.1;2.4;1.5;;;;5.0;21.0;
78570;SPS30;67861;51.966;5.672;2024-01-15T03:13:47;4.2;3.8;2.9;1.8;;;;5.0;21.0;
78570;SPS30;67861;51.966;5.672;2024-01-15T03:16:15;3.2;2.9;2.2;1.4;;;;5.0;21.0;
78570;SPS30;67861;51.966;5.672;2024-01-15T03:18:47;3.0;2.7;2.1;1.3;;;;5.0;21.0;
78570;SPS30;67861;51.966;5.672;2024-01-15T03:21:15;3.3;2.9;2.3;1.4;;;;5.0;21.0;
78570;SPS30;67861;51.966;5.672;2024-01-15T03:23:46;3.0;2.7;2.1;1.3;;;;5.0;22.0;
78570;SPS30;67861;51.966;5.672;2024-01-15T03:26:14;3.8;3.4;2.6;1.6;;;;5.0;24.0;
78570;SPS30;67861;51.966;5.672;2024-01-15T03:28:43;2.6;2.4;1.8;1.1;;;;5.0;25.0;
78570;SPS30;67861;51.966;5.672;2024-01-15T03:31:11;3.7;3.3;2.6;1.6;;;;5.0;26.0;
78570;SPS30;67861;51.966;5.672;2024-01-15T03:33:40;2.5;2.3;1.8;1.1;;;;5.0;26.0;
78570;SPS30;67861;51.966;5.672;2024-01-15T03:36:09;3.8;3.4;2.6;1.6;;;;5.0;26.0;
78570;SPS30;67861;51.966;5.672;2024-01-15T03:38:40;2.6;2.4;1.8;1.1;;;;5.0;26.0;
78570;SPS30;67861;51.966;5.672;2024-01-15T03:41:10;3.3;3.0;2.3;1.4;;;;4.0;27.0;
78570;SPS30;67861;51.966;5.672;2024-01-15T03:43:40;2.5;2.3;1.8;1.1;;;;4.0;28.0;
78570;SPS30;67861;51.966;5.672;2024-01-15T03:46:11;3.8;3.4;2.6;1.6;;;;4.0;29.0;
78570;SPS30;67861;51.966;5.672;2024-01-15T03:48:40;2.9;2.6;2.0;1.2;;;;4.0;30.0;
78570;SPS30;67861;51.966;5.672;2024-01-15T03:51:08;3.6;3.2;2.5;1.5;;;;4.0;32.0;
78570;SPS30;67861;51.966;5.672;2024-01-15T03:53:39;5.1;4.6;3.5;2.1;;;;4.0;34.0;
78570;SPS30;67861;51.966;5.672;2024-01-15T03:56:08;2.8;2.6;2.0;1.2;;;;4.0;36.0;
78570;SPS30;67861;51.966;5.672;2024-01-15T03:58:36;3.2;2.9;2.2;1.3;;;;4.0;35.0;
78570;SPS30;67861;51.966;5.672;2024-01-15T04:01:06;2.8;2.5;1.9;1.2;;;;4.0;35.0;
78570;SPS30;67861;51.966;5.672;2024-01-15T04:03:36;3.5;3.1;2.4;1.4;;;;4.0;34.0;
78570;SPS30;67861;51.966;5.672;2024-01-15T04:06:05;3.3;3.0;2.2;1.3;;;;4.0;34.0;
78570;SPS30;67861;51.966;5.672;2024-01-15T04:08:34;3.2;2.8;2.1;1.2;;;;4.0;35.0;
78570;SPS30;67861;51.966;5.672;2024-01-15T04:11:02;3.8;3.4;2.6;1.5;;;;4.0;37.0;
78570;SPS30;67861;51.966;5.672;2024-01-15T04:13:33;3.7;3.3;2.5;1.5;;;;4.0;43.0;
78570;SPS30;67861;51.966;5.672;2024-01-15T04:16:02;3.9;3.5;2.6;1.5;;;;4.0;43.0;
78570;SPS30;67861;51.966;5.672;2024-01-15T04:18:30;2.3;2.1;1.6;1.0;;;;4.0;43.0;
78570;SPS30;67861;51.966;5.672;2024-01-15T04:21:01;2.4;2.1;1.6;1.0;;;;4.0;43.0;
78570;SPS30;67861;51.966;5.672;2024-01-15T04:23:32;3.3;3.0;2.3;1.4;;;;4.0;43.0;
78570;SPS30;67861;51.966;5.672;2024-01-15T04:26:00;2.9;2.6;2.0;1.2;;;;4.0;43.0;
78570;SPS30;67861;51.966;5.672;2024-01-15T04:28:29;3.1;2.8;2.2;1.3;;;;4.0;45.0;
78570;SPS30;67861;51.966;5.672;2024-01-15T04:30:57;3.3;3.0;2.3;1.5;;;;4.0;46.0;
78570;SPS30;67861;51.966;5.672;2024-01-15T04:33:25;3.2;2.9;2.3;1.5;;;;4.0;57.0;
78570;SPS30;67861;51.966;5.672;2024-01-15T04:35:54;2.6;2.4;1.9;1.3;;;;4.0;70.0;
78570;SPS30;67861;51.966;5.672;2024-01-15T04:38:22;2.0;1.9;1.5;1.0;;;;4.0;68.0;
78570;SPS30;67861;51.966;5.672;2024-01-15T04:40:51;4.1;3.7;2.9;1.9;;;;4.0;68.0;
78570;SPS30;67861;51.966;5.672;2024-01-15T04:43:21;2.7;2.4;1.9;1.3;;;;3.0;67.0;
78570;SPS30;67861;51.966;5.672;2024-01-15T04:45:50;2.3;2.1;1.7;1.1;;;;3.0;65.0;
78570;SPS30;67861;51.966;5.672;2024-01-15T04:48:18;2.0;1.8;1.4;0.9;;;;3.0;62.0;
78570;SPS30;67861;51.966;5.672;2024-01-15T04:50:48;2.6;2.3;1.8;1.1;;;;3.0;61.0;
78570;SPS30;67861;51.966;5.672;2024-01-15T04:53:17;2.5;2.3;1.8;1.1;;;;3.0;59.0;
78570;SPS30;67861;51.966;5.672;2024-01-15T04:55:45;3.1;2.8;2.2;1.4;;;;3.0;56.0;
78570;SPS30;67861;51.966;5.672;2024-01-15T04:58:14;3.2;2.9;2.3;1.5;;;;3.0;56.0;
78570;SPS30;67861;51.966;5.672;2024-01-15T05:00:42;2.3;2.1;1.6;1.1;;;;3.0;61.0;
78570;SPS30;67861;51.966;5.672;2024-01-15T05:03:11;3.0;2.8;2.2;1.4;;;;3.0;68.0;
78570;SPS30;67861;51.966;5.672;2024-01-15T05:05:39;2.8;2.6;2.0;1.3;;;;3.0;71.0;
78570;SPS30;67861;51.966;5.672;2024-01-15T05:08:08;2.2;2.0;1.6;1.1;;;;3.0;69.0;
78570;SPS30;67861;51.966;5.672;2024-01-15T05:10:36;2.5;2.2;1.8;1.2;;;;3.0;61.0;
78570;SPS30;67861;51.966;5.672;2024-01-15T05:13:05;2.6;2.3;1.9;1.2;;;;3.0;53.0;
78570;SPS30;67861;51.966;5.672;2024-01-15T05:15:33;2.7;2.4;1.9;1.3;;;;3.0;46.0;
78570;SPS30;67861;51.966;5.672;2024-01-15T05:18:02;2.5;2.3;1.8;1.2;;;;3.0;43.0;
78570;SPS30;67861;51.966;5.672;2024-01-15T05:20:31;1.7;1.5;1.2;0.8;;;;4.0;43.0;
78570;SPS30;67861;51.966;5.672;2024-01-15T05:22:59;2.4;2.2;1.7;1.1;;;;4.0;42.0;
78570;SPS30;67861;51.966;5.672;2024-01-15T05:25:27;2.2;2.0;1.6;1.1;;;;4.0;44.0;
78570;SPS30;67861;51.966;5.672;2024-01-15T05:27:56;2.4;2.2;1.8;1.2;;;;4.0;44.0;
78570;SPS30;67861;51.966;5.672;2024-01-15T05:30:24;2.0;1.8;1.5;1.1;;;;4.0;44.0;
78570;SPS30;67861;51.966;5.672;2024-01-15T05:32:53;1.7;1.6;1.3;1.0;;;;4.0;40.0;
78570;SPS30;67861;51.966;5.672;2024-01-15T05:35:23;1.8;1.7;1.4;1.1;;;;4.0;37.0;
78570;SPS30;67861;51.966;5.672;2024-01-15T05:37:52;2.1;2.0;1.7;1.3;;;;4.0;36.0;
78570;SPS30;67861;51.966;5.672;2024-01-15T05:40:22;2.1;1.9;1.6;1.2;;;;4.0;36.0;
78570;SPS30;67861;51.966;5.672;2024-01-15T05:42:52;2.2;2.1;1.8;1.4;;;;4.0;38.0;
78570;SPS30;67861;51.966;5.672;2024-01-15T05:45:23;4.0;3.8;3.3;2.6;;;;4.0;40.0;
78570;SPS30;67861;51.966;5.672;2024-01-15T05:47:51;3.1;2.9;2.5;2.0;;;;4.0;41.0;
78570;SPS30;67861;51.966;5.672;2024-01-15T05:50:19;2.0;1.9;1.8;1.5;;;;4.0;42.0;
78570;SPS30;67861;51.966;5.672;2024-01-15T05:52:48;1.5;1.4;1.3;1.0;;;;4.0;41.0;
78570;SPS30;67861;51.966;5.672;2024-01-15T05:55:17;1.9;1.8;1.6;1.3;;;;4.0;38.0;
78570;SPS30;67861;51.966;5.672;2024-01-15T05:57:47;1.9;1.8;1.6;1.3;;;;4.0;37.0;
78570;SPS30;67861;51.966;5.672;2024-01-15T06:00:16;1.0;1.0;0.9;0.7;;;;4.0;37.0;
78570;SPS30;67861;51.966;5.672;2024-01-15T06:02:44;1.1;1.0;0.9;0.8;;;;5.0;35.0;
78570;SPS30;67861;51.966;5.672;2024-01-15T06:05:13;1.0;1.0;0.9;0.7;;;;4.0;35.0;
78570;SPS30;67861;51.966;5.672;2024-01-15T06:07:41;1.2;1.1;1.0;0.9;;;;4.0;34.0;
78570;SPS30;67861;51.966;5.672;2024-01-15T06:10:10;1.1;1.1;1.0;0.8;;;;4.0;32.0;
78570;SPS30;67861;51.966;5.672;2024-01-15T06:12:39;1.1;1.1;1.0;0.8;;;;4.0;32.0;
78570;SPS30;67861;51.966;5.672;2024-01-15T06:15:07;0.9;0.9;0.8;0.7;;;;4.0;31.0;
78570;SPS30;67861;51.966;5.672;2024-01-15T06:17:36;1.0;1.0;0.9;0.8;;;;4.0;30.0;
78570;SPS30;67861;51.966;5.672;2024-01-15T06:20:06;1.4;1.3;1.2;1.1;;;;4.0;30.0;
78570;SPS30;67861;51.966;5.672;2024-01-15T06:22:35;1.7;1.7;1.6;1.4;;;;4.0;30.0;
78570;SPS30;67861;51.966;5.672;2024-01-15T06:25:05;2.6;2.6;2.5;2.3;;;;4.0;31.0;
78570;SPS30;67861;51.966;5.672;2024-01-15T06:27:34;2.7;2.7;2.7;2.6;;;;4.0;32.0;
78570;SPS30;67861;51.966;5.672;2024-01-15T06:30:03;2.6;2.6;2.6;2.5;;;;4.0;38.0;
78570;SPS30;67861;51.966;5.672;2024-01-15T06:32:32;2.9;2.9;2.9;2.7;;;;4.0;55.0;
78570;SPS30;67861;51.966;5.672;2024-01-15T06:35:01;3.7;3.7;3.7;3.5;;;;4.0;56.0;
78570;SPS30;67861;51.966;5.672;2024-01-15T06:37:29;3.4;3.4;3.4;3.3;;;;4.0;60.0;
78570;SPS30;67861;51.966;5.672;2024-01-15T06:39:58;4.1;4.1;4.1;3.9;;;;4.0;64.0;
78570;SPS30;67861;51.966;5.672;2024-01-15T06:42:29;3.9;3.9;3.9;3.8;;;;3.0;72.0;
78570;SPS30;67861;51.966;5.672;2024-01-15T06:44:57;4.6;4.6;4.6;4.4;;;;3.0;73.0;
78570;SPS30;67861;51.966;5.672;2024-01-15T06:47:26;4.7;4.7;4.7;4.5;;;;3.0;79.0;
78570;SPS30;67861;51.966;5.672;2024-01-15T06:49:54;3.9;3.9;3.9;3.7;;;;3.0;81.0;
78570;SPS30;67861;51.966;5.672;2024-01-15T06:52:23;4.0;4.0;4.0;3.8;;;;3.0;78.0;
78570;SPS30;67861;51.966;5.672;2024-01-15T06:54:51;3.8;3.8;3.8;3.6;;;;3.0;80.0;
78570;SPS30;67861;51.966;5.672;2024-01-15T06:57:20;3.7;3.7;3.7;3.5;;;;3.0;90.0;
78570;SPS30;67861;51.966;5.672;2024-01-15T06:59:48;3.8;3.8;3.8;3.6;;;;3.0;106.0;
78570;SPS30;67861;51.966;5.672;2024-01-15T07:02:17;3.3;3.3;3.3;3.2;;;;3.0;127.0;
78570;SPS30;67861;51.966;5.672;2024-01-15T07:04:45;3.4;3.4;3.4;3.3;;;;3.0;144.0;
78570;SPS30;67861;51.966;5.672;2024-01-15T07:07:14;3.1;3.1;3.1;3.0;;;;3.0;151.0;
78570;SPS30;67861;51.966;5.672;2024-01-15T07:09:43;3.6;3.6;3.6;3.4;;;;3.0;150.0;
78570;SPS30;67861;51.966;5.672;2024-01-15T07:12:11;3.5;3.5;3.5;3.4;;;;3.0;151.0;
78570;SPS30;67861;51.966;5.672;2024-01-15T07:14:40;3.8;3.8;3.8;3.7;;;;3.0;151.0;
78570;SPS30;67861;51.966;5.672;2024-01-15T07:17:08;4.1;4.1;4.1;3.9;;;;2.0;154.0;
78570;SPS30;67861;51.966;5.672;2024-01-15T07:19:37;4.1;4.1;4.1;3.9;;;;2.0;157.0;
78570;SPS30;67861;51.966;5.672;2024-01-15T07:22:05;3.4;3.4;3.4;3.2;;;;2.0;156.0;
78570;SPS30;67861;51.966;5.672;2024-01-15T07:24:34;3.1;3.1;3.1;2.9;;;;2.0;141.0;
78570;SPS30;67861;51.966;5.672;2024-01-15T07:27:03;6.6;6.6;6.6;6.3;;;;2.0;136.0;
78570;SPS30;67861;51.966;5.672;2024-01-15T07:29:32;3.2;3.2;3.2;3.0;;;;2.0;135.0;
78570;SPS30;67861;51.966;5.672;2024-01-15T07:32:03;4.2;4.2;4.2;4.0;;;;2.0;125.0;
78570;SPS30;67861;51.966;5.672;2024-01-15T07:34:33;6.4;6.4;6.2;5.8;;;;2.0;134.0;
78570;SPS30;67861;51.966;5.672;2024-01-15T07:37:03;3.6;3.6;3.5;3.3;;;;2.0;150.0;
78570;SPS30;67861;51.966;5.672;2024-01-15T07:39:31;2.8;2.8;2.8;2.7;;;;2.0;152.0;
78570;SPS30;67861;51.966;5.672;2024-01-15T07:42:00;2.8;2.8;2.8;2.6;;;;2.0;150.0;
78570;SPS30;67861;51.966;5.672;2024-01-15T07:44:29;2.6;2.6;2.6;2.5;;;;2.0;135.0;
78570;SPS30;67861;51.966;5.672;2024-01-15T07:46:58;2.6;2.6;2.6;2.5;;;;2.0;129.0;
78570;SPS30;67861;51.966;5.672;2024-01-15T07:49:26;2.7;2.7;2.7;2.6;;;;2.0;111.0;
78570;SPS30;67861;51.966;5.672;2024-01-15T07:51:54;1.9;1.9;1.9;1.8;;;;2.0;94.0;
78570;SPS30;67861;51.966;5.672;2024-01-15T07:54:23;1.9;1.9;1.9;1.8;;;;2.0;78.0;
78570;SPS30;67861;51.966;5.672;2024-01-15T07:56:55;1.7;1.7;1.7;1.7;;;;2.0;75.0;
78570;SPS30;67861;51.966;5.672;2024-01-15T07:59:25;1.9;1.9;1.9;1.8;;;;2.0;70.0;
78570;SPS30;67861;51.966;5.672;2024-01-15T08:01:54;1.7;1.7;1.7;1.7;;;;2.0;68.0;
78570;SPS30;67861;51.966;5.672;2024-01-15T08:04:23;1.5;1.5;1.5;1.4;;;;2.0;71.0;
78570;SPS30;67861;51.966;5.672;2024-01-15T08:06:51;1.8;1.8;1.8;1.7;;;;3.0;73.0;
78570;SPS30;67861;51.966;5.672;2024-01-15T08:09:20;2.2;2.2;2.2;2.1;;;;3.0;74.0;
78570;SPS30;67861;51.966;5.672;2024-01-15T08:11:49;1.9;1.9;1.9;1.8;;;;3.0;74.0;
78570;SPS30;67861;51.966;5.672;2024-01-15T08:14:17;2.0;2.0;2.0;1.9;;;;3.0;75.0;
78570;SPS30;67861;51.966;5.672;2024-01-15T08:16:46;1.6;1.6;1.6;1.5;;;;3.0;77.0;
78570;SPS30;67861;51.966;5.672;2024-01-15T08:19:14;2.5;2.5;2.5;2.4;;;;3.0;77.0;
78570;SPS30;67861;51.966;5.672;2024-01-15T08:21:43;2.4;2.4;2.4;2.2;;;;3.0;78.0;
78570;SPS30;67861;51.966;5.672;2024-01-15T08:24:11;2.7;2.7;2.7;2.5;;;;3.0;85.0;
78570;SPS30;67861;51.966;5.672;2024-01-15T08:26:40;2.3;2.3;2.3;2.2;;;;3.0;86.0;
78570;SPS30;67861;51.966;5.672;2024-01-15T08:29:09;2.7;2.7;2.7;2.6;;;;3.0;90.0;
78570;SPS30;67861;51.966;5.672;2024-01-15T08:31:37;2.2;2.2;2.2;2.1;;;;3.0;90.0;
78570;SPS30;67861;51.966;5.672;2024-01-15T08:34:06;2.5;2.5;2.5;2.4;;;;3.0;92.0;
78570;SPS30;67861;51.966;5.672;2024-01-15T08:36:35;2.5;2.5;2.5;2.4;;;;3.0;91.0;
78570;SPS30;67861;51.966;5.672;2024-01-15T08:39:03;2.6;2.6;2.6;2.5;;;;3.0;89.0;
78570;SPS30;67861;51.966;5.672;2024-01-15T08:41:33;1.8;1.8;1.8;1.7;;;;3.0;88.0;
78570;SPS30;67861;51.966;5.672;2024-01-15T08:44:02;2.3;2.3;2.3;2.2;;;;3.0;89.0;
78570;SPS30;67861;51.966;5.672;2024-01-15T08:46:30;2.8;2.8;2.8;2.7;;;;3.0;90.0;
78570;SPS30;67861;51.966;5.672;2024-01-15T08:48:59;2.8;2.8;2.8;2.7;;;;3.0;92.0;
78570;SPS30;67861;51.966;5.672;2024-01-15T08:51:29;3.0;3.0;3.0;2.9;;;;3.0;107.0;
78570;SPS30;67861;51.966;5.672;2024-01-15T08:53:58;3.3;3.3;3.3;3.2;;;;3.0;119.0;
78570;SPS30;67861;51.966;5.672;2024-01-15T08:56:28;3.5;3.5;3.5;3.3;;;;3.0;112.0;
78570;SPS30;67861;51.966;5.672;2024-01-15T08:58:56;3.2;3.2;3.2;3.0;;;;2.0;110.0;
78570;SPS30;67861;51.966;5.672;2024-01-15T09:01:27;2.6;2.6;2.6;2.5;;;;2.0;116.0;
78570;SPS30;67861;51.966;5.672;2024-01-15T09:03:56;2.3;2.3;2.3;2.2;;;;2.0;116.0;
78570;SPS30;67861;51.966;5.672;2024-01-15T09:06:25;2.4;2.4;2.4;2.3;;;;2.0;114.0;
78570;SPS30;67861;51.966;5.672;2024-01-15T09:08:53;2.8;2.8;2.8;2.7;;;;2.0;113.0;
78570;SPS30;67861;51.966;5.672;2024-01-15T09:11:22;2.5;2.5;2.5;2.4;;;;2.0;118.0;
78570;SPS30;67861;51.966;5.672;2024-01-15T09:13:50;2.7;2.7;2.7;2.5;;;;2.0;118.0;
78570;SPS30;67861;51.966;5.672;2024-01-15T09:16:19;2.4;2.4;2.4;2.3;;;;2.0;117.0;
78570;SPS30;67861;51.966;5.672;2024-01-15T09:18:47;1.5;1.5;1.5;1.4;;;;2.0;88.0;
78570;SPS30;67861;51.966;5.672;2024-01-15T09:21:16;1.5;1.5;1.5;1.5;;;;2.0;70.0;
78570;SPS30;67861;51.966;5.672;2024-01-15T09:23:45;2.0;1.9;1.9;1.8;;;;2.0;66.0;
78570;SPS30;67861;51.966;5.672;2024-01-15T09:26:16;1.5;1.5;1.5;1.4;;;;2.0;61.0;
78570;SPS30;67861;51.966;5.672;2024-01-15T09:28:45;1.4;1.4;1.4;1.3;;;;2.0;56.0;
78570;SPS30;67861;51.966;5.672;2024-01-15T09:31:13;1.5;1.4;1.4;1.3;;;;2.0;59.0;
78570;SPS30;67861;51.966;5.672;2024-01-15T09:33:43;1.7;1.7;1.6;1.5;;;;3.0;55.0;
78570;SPS30;67861;51.966;5.672;2024-01-15T09:36:12;1.2;1.2;1.2;1.0;;;;3.0;55.0;
78570;SPS30;67861;51.966;5.672;2024-01-15T09:38:41;1.0;1.0;0.9;0.9;;;;3.0;51.0;
78570;SPS30;67861;51.966;5.672;2024-01-15T09:41:12;1.1;1.0;1.0;0.9;;;;3.0;43.0;
78570;SPS30;67861;51.966;5.672;2024-01-15T09:43:40;1.0;1.0;0.9;0.8;;;;3.0;38.0;
78570;SPS30;67861;51.966;5.672;2024-01-15T09:46:09;0.8;0.8;0.8;0.7;;;;3.0;37.0;
78570;SPS30;67861;51.966;5.672;2024-01-15T09:48:39;1.0;1.0;1.0;0.9;;;;3.0;39.0;
78570;SPS30;67861;51.966;5.672;2024-01-15T09:51:08;0.9;0.9;0.9;0.8;;;;3.0;37.0;
78570;SPS30;67861;51.966;5.672;2024-01-15T09:53:38;0.8;0.7;0.7;0.7;;;;3.0;36.0;
78570;SPS30;67861;51.966;5.672;2024-01-15T09:56:11;0.9;0.9;0.9;0.8;;;;3.0;36.0;
78570;SPS30;67861;51.966;5.672;2024-01-15T09:58:40;1.4;1.4;1.3;1.2;;;;3.0;37.0;
78570;SPS30;67861;51.966;5.672;2024-01-15T10:01:10;1.4;1.3;1.3;1.2;;;;3.0;37.0;
78570;SPS30;67861;51.966;5.672;2024-01-15T10:03:41;1.3;1.3;1.3;1.2;;;;3.0;38.0;
78570;SPS30;67861;51.966;5.672;2024-01-15T10:06:10;1.3;1.3;1.2;1.1;;;;3.0;39.0;
78570;SPS30;67861;51.966;5.672;2024-01-15T10:08:43;1.5;1.5;1.5;1.3;;;;3.0;39.0;
78570;SPS30;67861;51.966;5.672;2024-01-15T10:11:16;1.4;1.4;1.3;1.2;;;;3.0;39.0;
78570;SPS30;67861;51.966;5.672;2024-01-15T10:13:45;1.6;1.6;1.5;1.3;;;;3.0;38.0;
78570;SPS30;67861;51.966;5.672;2024-01-15T10:16:18;1.4;1.4;1.3;1.2;;;;3.0;37.0;
78570;SPS30;67861;51.966;5.672;2024-01-15T10:18:48;1.7;1.7;1.6;1.5;;;;3.0;37.0;
78570;SPS30;67861;51.966;5.672;2024-01-15T10:21:16;1.8;1.8;1.7;1.6;;;;3.0;37.0;
78570;SPS30;67861;51.966;5.672;2024-01-15T10:23:47;2.6;2.6;2.6;2.4;;;;3.0;46.0;
78570;SPS30;67861;51.966;5.672;2024-01-15T10:26:16;2.6;2.6;2.6;2.4;;;;3.0;69.0;
78570;SPS30;67861;51.966;5.672;2024-01-15T10:28:44;2.7;2.7;2.7;2.6;;;;3.0;81.0;
78570;SPS30;67861;51.966;5.672;2024-01-15T10:31:13;3.5;3.5;3.5;3.3;;;;3.0;113.0;
78570;SPS30;67861;51.966;5.672;2024-01-15T10:33:41;3.5;3.5;3.5;3.3;;;;2.0;138.0;
78570;SPS30;67861;51.966;5.672;2024-01-15T10:36:12;3.6;3.6;3.6;3.5;;;;2.0;159.0;
78570;SPS30;67861;51.966;5.672;2024-01-15T10:38:41;3.8;3.8;3.8;3.6;;;;2.0;173.0;
78570;SPS30;67861;51.966;5.672;2024-01-15T10:41:11;3.5;3.5;3.5;3.3;;;;2.0;178.0;
78570;SPS30;67861;51.966;5.672;2024-01-15T10:43:42;4.5;4.5;4.5;4.3;;;;2.0;187.0;
78570;SPS30;67861;51.966;5.672;2024-01-15T10:46:11;3.7;3.7;3.7;3.5;;;;2.0;184.0;
78570;SPS30;67861;51.966;5.672;2024-01-15T10:48:41;4.0;4.0;4.0;3.8;;;;2.0;181.0;
78570;SPS30;67861;51.966;5.672;2024-01-15T10:51:11;4.2;4.2;4.2;4.0;;;;2.0;186.0;
78570;SPS30;67861;51.966;5.672;2024-01-15T10:53:41;3.8;3.8;3.8;3.6;;;;2.0;193.0;
78570;SPS30;67861;51.966;5.672;2024-01-15T10:56:11;3.3;3.3;3.3;3.2;;;;2.0;190.0;
78570;SPS30;67861;51.966;5.672;2024-01-15T10:58:41;3.4;3.4;3.4;3.3;;;;2.0;190.0;
78570;SPS30;67861;51.966;5.672;2024-01-15T11:01:11;3.7;3.7;3.7;3.6;;;;2.0;187.0;
78570;SPS30;67861;51.966;5.672;2024-01-15T11:03:41;3.0;3.0;3.0;2.9;;;;2.0;185.0;
78570;SPS30;67861;51.966;5.672;2024-01-15T11:06:17;2.7;2.7;2.7;2.5;;;;2.0;183.0;
78570;SPS30;67861;51.966;5.672;2024-01-15T11:08:48;2.9;2.9;2.9;2.8;;;;2.0;184.0;
78570;SPS30;67861;51.966;5.672;2024-01-15T11:11:17;2.7;2.7;2.7;2.5;;;;1.0;176.0;
78570;SPS30;67861;51.966;5.672;2024-01-15T11:13:48;3.0;3.0;3.0;2.8;;;;1.0;167.0;
78570;SPS30;67861;51.966;5.672;2024-01-15T11:16:17;2.1;2.1;2.1;2.0;;;;1.0;164.0;
78570;SPS30;67861;51.966;5.672;2024-01-15T11:19:02;2.6;2.6;2.6;2.4;;;;1.0;139.0;
78570;SPS30;67861;51.966;5.672;2024-01-15T11:21:32;2.3;2.3;2.2;2.1;;;;1.0;151.0;
78570;SPS30;67861;51.966;5.672;2024-01-15T11:24:01;2.1;2.1;2.1;1.9;;;;1.0;155.0;
78570;SPS30;67861;51.966;5.672;2024-01-15T11:26:34;2.1;2.1;2.0;1.8;;;;1.0;138.0;
78570;SPS30;67861;51.966;5.672;2024-01-15T11:29:05;1.7;1.7;1.6;1.5;;;;1.0;111.0;
78570;SPS30;67861;51.966;5.672;2024-01-15T11:37:24;2.0;1.9;1.8;1.5;;;;2.0;77.0;
78570;SPS30;67861;51.966;5.672;2024-01-15T11:39:54;2.3;2.2;1.9;1.6;;;;2.0;68.0;
78570;SPS30;67861;51.966;5.672;2024-01-15T11:42:23;3.0;2.8;2.5;2.0;;;;2.0;64.0;
78570;SPS30;67861;51.966;5.672;2024-01-15T11:44:54;3.0;2.9;2.5;2.0;;;;2.0;61.0;
78570;SPS30;67861;51.966;5.672;2024-01-15T11:47:29;2.4;2.3;2.0;1.6;;;;2.0;61.0;
78570;SPS30;67861;51.966;5.672;2024-01-15T11:50:18;2.5;2.4;2.1;1.8;;;;2.0;60.0;
78570;SPS30;67861;51.966;5.672;2024-01-15T11:52:48;2.2;2.1;1.9;1.5;;;;2.0;59.0;
78570;SPS30;67861;51.966;5.672;2024-01-15T11:55:27;2.9;2.7;2.4;1.9;;;;2.0;59.0;
78570;SPS30;67861;51.966;5.672;2024-01-15T11:58:02;2.8;2.6;2.3;1.9;;;;2.0;60.0;
78570;SPS30;67861;51.966;5.672;2024-01-15T12:00:40;2.7;2.6;2.3;1.8;;;;2.0;56.0;
78570;SPS30;67861;51.966;5.672;2024-01-15T12:03:10;2.5;2.4;2.1;1.6;;;;2.0;55.0;
78570;SPS30;67861;51.966;5.672;2024-01-15T12:05:39;2.8;2.7;2.3;1.8;;;;2.0;55.0;
78570;SPS30;67861;51.966;5.672;2024-01-15T12:08:09;1.7;1.6;1.4;1.0;;;;2.0;57.0;
78570;SPS30;67861;51.966;5.672;2024-01-15T12:10:39;1.6;1.5;1.3;1.0;;;;2.0;57.0;
78570;SPS30;67861;51.966;5.672;2024-01-15T12:13:11;2.5;2.4;2.0;1.5;;;;2.0;53.0;
78570;SPS30;67861;51.966;5.672;2024-01-15T12:15:41;2.5;2.3;2.0;1.5;;;;2.0;53.0;
78570;SPS30;67861;51.966;5.672;2024-01-15T12:18:11;2.1;1.9;1.7;1.3;;;;2.0;58.0;
78570;SPS30;67861;51.966;5.672;2024-01-15T12:20:40;2.0;1.9;1.6;1.3;;;;2.0;72.0;
78570;SPS30;67861;51.966;5.672;2024-01-15T12:23:12;2.7;2.5;2.2;1.7;;;;2.0;83.0;
78570;SPS30;67861;51.966;5.672;2024-01-15T12:25:42;2.1;2.0;1.7;1.3;;;;2.0;98.0;